Austerlitz, NY

12:57 PM EDT on July 04, 2015 (GMT -0400)
chatham | | Change Station
CLOSE
Current Station
Personal Weather Station
Location: Spencertown, NY
Elevation: 1017 ft
Nearby Weather Stations

Elev 1017 ft 42.32 °N, 73.52 °W | Updated 2 minutes ago

Rain
Rain
63.1 °F
Feels Like 63.1 °F
N
0.0
Wind Variable Wind from SW
Gusts 0.0 mph

Today
High -- | Low -- °F
--% Chance of Precip.
Yesterday
High -- | Low -- °F
Precip. -- in
5:22 AM 8:33 PM
Waning Gibbous, 91% visible
Pressure 29.97 in
Visibility 4.0 miles
Clouds Scattered Clouds 500 ft
Mostly Cloudy 7500 ft
Overcast 9500 ft
Dew Point 61 °F
Humidity 93%
Rainfall 0.15 in
Snow Depth Not available.
UV 4 out of 12
Pollen 1.00 out of 12
Air Quality Not available.
Flu Activity Not available.
METAR KPSF 041654Z AUTO 00000KT 4SM -RA BR SCT005 BKN075 OVC095 17/15 A3001 RMK AO2 SLP148 P0006 T01670150

More Conditions Fewer Conditions

Pressure 29.97 in
Visibility 4.0 miles
Clouds Scattered Clouds 500 ft
Mostly Cloudy 7500 ft
Overcast 9500 ft
Dew Point 61 °F
Humidity 93%
Rainfall 0.15 in
Snow Depth Not available.
UV 4 out of 12
Pollen 1.00 out of 12
Air Quality Not available.
Flu Activity Not available.
METAR KPSF 041654Z AUTO 00000KT 4SM -RA BR SCT005 BKN075 OVC095 17/15 A3001 RMK AO2 SLP148 P0006 T01670150

More Conditions Fewer Conditions

10-Day Weather Forecast

×

Almanac

Astronomy

Jul. 04, 2015 Rise Set
Actual Time
Civil Twilight
Nautical Twilight
Astronomical Twilight
Moon
Length of Visible Light
Length of Day
Tomorrow will be .
, % of the Moon is Illuminated

Today's Extremes

State Highs State Lows

Community

WunderPhotos

Upload Photos

1,835,000 photos uploaded!

WunderBlogs® & News

Nearby

Air Quality

  Air Quality AQ Index Pollutant
Not available.

Snow Depth

Station Depth Elevation

Earthquake Activity

City Distance Mag. Time & Date
Minimum magnitude displayed is 2.5.

Coastal Water Temperatures

Place Temperature

Stations

Nearby Weather Stations

Station Location Temp. Windchill Dew Point Humidity Wind Precip. Elev Updated Type